createdAt,value
2022-12-23T00:02:57.665Z,99871.06
2022-12-23T00:13:17.864Z,99869.38
2022-12-23T00:23:19.233Z,99869.34
2022-12-23T00:33:24.328Z,99880.56
2022-12-23T00:43:25.845Z,99876.25
2022-12-23T00:53:27.251Z,99882.28
2022-12-23T01:03:48.041Z,99896.06
2022-12-23T01:13:49.444Z,99911.56
2022-12-23T01:23:50.818Z,99919.34
2022-12-23T01:33:52.876Z,99933.09
2022-12-23T01:43:54.217Z,99939.94
2022-12-23T01:54:01.088Z,99942.56
2022-12-23T02:04:09.095Z,99946.81
2022-12-23T02:14:28.790Z,99951.94
2022-12-23T02:24:42.425Z,99953.59
2022-12-23T02:35:01.718Z,99958.75
2022-12-23T02:45:15.847Z,99992.38
2022-12-23T02:55:26.048Z,100001.81
2022-12-23T03:05:32.784Z,100007.00
2022-12-23T03:16:01.367Z,100009.53
2022-12-23T03:26:11.945Z,100043.13
2022-12-23T03:36:20.295Z,100047.41
2022-12-23T03:46:57.131Z,100037.97
2022-12-23T03:57:03.998Z,100031.94
2022-12-23T04:07:27.716Z,100030.22
2022-12-23T04:17:29.464Z,100044.84
2022-12-23T04:27:30.827Z,100038.00
2022-12-23T04:37:32.553Z,100043.16
2022-12-23T04:47:33.965Z,100053.50
2022-12-23T04:57:35.332Z,100058.69
2022-12-23T05:07:36.751Z,100063.00
2022-12-23T05:17:38.153Z,100065.56
2022-12-23T05:27:39.474Z,100056.13
2022-12-23T05:37:40.891Z,100050.13
2022-12-23T05:47:42.244Z,100069.91
2022-12-23T05:57:43.591Z,100097.47
2022-12-23T06:07:45.088Z,100105.22
2022-12-23T06:17:48.325Z,100115.59
2022-12-23T06:27:49.714Z,100119.03
2022-12-23T06:37:53.109Z,100103.53
2022-12-23T06:47:54.527Z,100090.59
2022-12-23T06:57:55.877Z,100094.06
2022-12-23T07:07:58.296Z,100097.53
2022-12-23T07:17:59.704Z,100127.63
2022-12-23T07:28:01.130Z,100159.50
2022-12-23T07:38:02.538Z,100183.66
2022-12-23T07:48:04.001Z,100167.31
2022-12-23T07:58:05.404Z,100170.78
2022-12-23T08:08:06.774Z,100163.06
2022-12-23T08:18:08.189Z,100160.50
2022-12-23T08:28:09.567Z,100162.22
2022-12-23T08:38:10.968Z,100166.50
2022-12-23T08:48:13.493Z,100143.28
2022-12-23T08:58:15.781Z,100160.50
2022-12-23T09:08:17.234Z,100145.84
2022-12-23T09:18:18.976Z,100147.56
2022-12-23T09:28:21.211Z,100150.16
2022-12-23T09:38:22.579Z,100130.34
2022-12-23T09:48:28.467Z,100120.00
2022-12-23T09:58:35.582Z,100122.56
2022-12-23T10:08:44.872Z,100105.34
2022-12-23T10:18:55.699Z,100090.69
2022-12-23T10:29:24.815Z,100061.41
2022-12-23T10:39:42.703Z,100034.63
2022-12-23T10:49:59.550Z,100038.88
2022-12-23T11:00:00.901Z,100031.13
2022-12-23T11:10:13.130Z,100003.50
2022-12-23T11:20:17.840Z,100000.81
2022-12-23T11:30:19.310Z,99978.41
2022-12-23T11:40:35.504Z,99973.16
2022-12-23T11:50:40.556Z,99937.88
2022-12-23T12:00:55.372Z,99904.22
2022-12-23T12:11:22.009Z,99872.28
2022-12-23T12:21:28.631Z,99867.13
2022-12-23T12:31:38.994Z,99840.50
2022-12-23T12:41:50.906Z,99825.06
2022-12-23T12:52:07.767Z,99813.88
2022-12-23T13:02:46.704Z,99794.13
2022-12-23T13:12:59.460Z,99754.59
2022-12-23T13:23:34.297Z,99714.97
2022-12-23T13:33:47.849Z,99714.97
2022-12-23T13:43:54.061Z,99691.72
2022-12-23T13:54:17.314Z,99658.19
2022-12-23T14:04:31.555Z,99637.69
2022-12-23T14:14:33.046Z,99623.88
2022-12-23T14:24:52.520Z,99607.53
2022-12-23T14:35:21.876Z,99590.34
2022-12-23T14:45:35.652Z,99547.47
2022-12-23T14:55:40.380Z,99540.53
2022-12-23T15:05:42.704Z,99529.44
2022-12-23T15:16:00.910Z,99520.84
2022-12-23T15:26:03.192Z,99503.63
2022-12-23T15:36:06.211Z,99526.84
2022-12-23T15:46:21.970Z,99521.59
2022-12-23T15:56:30.697Z,99527.53
2022-12-23T16:06:36.505Z,99528.41
2022-12-23T16:16:40.795Z,99535.16
2022-12-23T16:26:42.981Z,99537.50
2022-12-23T16:36:44.396Z,99548.16
2022-12-23T16:46:48.974Z,99558.25
2022-12-23T16:56:50.594Z,99556.31
2022-12-23T17:06:51.961Z,99580.19
2022-12-23T17:16:54.093Z,99585.19
2022-12-23T17:26:59.347Z,99590.78
2022-12-23T17:37:01.953Z,99626.91
2022-12-23T17:47:10.641Z,99638.88
2022-12-23T17:57:24.265Z,99660.22
2022-12-23T18:07:26.050Z,99662.78
2022-12-23T18:17:27.604Z,99667.00
2022-12-23T18:27:28.982Z,99675.56
2022-12-23T18:37:30.316Z,99706.66
2022-12-23T18:47:31.662Z,99721.44
2022-12-23T18:57:33.054Z,99729.25
2022-12-23T19:07:34.583Z,99748.31
2022-12-23T19:17:36.018Z,99749.16
2022-12-23T19:27:39.746Z,99760.41
2022-12-23T19:37:42.150Z,99748.31
2022-12-23T19:47:43.547Z,99771.63
2022-12-23T19:57:44.944Z,99788.91
2022-12-23T20:07:46.314Z,99807.00
2022-12-23T20:17:47.706Z,99811.34
2022-12-23T20:27:49.079Z,99835.56
2022-12-23T20:37:50.645Z,99861.41
2022-12-23T20:47:53.968Z,99873.44
2022-12-23T20:57:55.359Z,99893.31
2022-12-23T21:07:56.725Z,99898.53
2022-12-23T21:17:58.623Z,99904.53
2022-12-23T21:28:00.005Z,99936.63
2022-12-23T21:38:01.374Z,99945.34
2022-12-23T21:48:02.759Z,99950.59
2022-12-23T21:58:04.134Z,99963.63
2022-12-23T22:08:07.112Z,99978.28
2022-12-23T22:18:08.624Z,99993.06
2022-12-23T22:28:10.050Z,100007.75
2022-12-23T22:38:11.443Z,100015.53
2022-12-23T22:48:13.160Z,100031.06
2022-12-23T22:58:14.490Z,100073.31
2022-12-23T23:08:15.850Z,100093.25
2022-12-23T23:18:17.224Z,100098.41
2022-12-23T23:28:18.609Z,100113.09
2022-12-23T23:38:20.033Z,100119.16
2022-12-23T23:48:21.644Z,100130.41
2022-12-23T23:58:23.013Z,100157.19
